createdAt,value
2023-04-06T00:01:03.847Z,43.80
2023-04-06T00:03:31.371Z,50.97
2023-04-06T00:05:58.432Z,39.78
2023-04-06T00:08:25.486Z,43.55
2023-04-06T00:10:52.451Z,47.72
2023-04-06T00:13:19.305Z,48.47
2023-04-06T00:15:46.148Z,49.25
2023-04-06T00:18:13.132Z,43.75
2023-04-06T00:20:40.068Z,39.05
2023-04-06T00:23:07.062Z,40.00
2023-04-06T00:25:33.880Z,45.88
2023-04-06T00:28:00.814Z,40.85
2023-04-06T00:30:27.705Z,40.42
2023-04-06T00:32:54.642Z,38.28
2023-04-06T00:35:21.967Z,41.45
2023-04-06T00:37:49.335Z,37.25
2023-04-06T00:40:16.776Z,40.10
2023-04-06T00:42:43.737Z,38.15
2023-04-06T00:45:11.381Z,36.88
2023-04-06T00:47:38.563Z,39.25
2023-04-06T00:50:06.330Z,40.95
2023-04-06T00:52:33.232Z,41.67
2023-04-06T00:55:00.119Z,33.25
2023-04-06T00:57:27.013Z,41.50
2023-04-06T00:59:54.314Z,41.47
2023-04-06T01:02:25.178Z,36.53
2023-04-06T01:04:53.436Z,35.67
2023-04-06T01:07:20.430Z,40.25
2023-04-06T01:09:47.228Z,35.58
2023-04-06T01:12:14.153Z,39.47
2023-04-06T01:14:41.847Z,37.92
2023-04-06T01:17:08.750Z,35.33
2023-04-06T01:19:35.640Z,38.10
2023-04-06T01:22:02.610Z,33.05
2023-04-06T01:24:29.606Z,34.13
2023-04-06T01:26:57.640Z,32.08
2023-04-06T01:29:24.504Z,37.15
2023-04-06T01:31:51.557Z,36.90
2023-04-06T01:34:18.422Z,30.02
2023-04-06T01:36:45.473Z,35.47
2023-04-06T01:39:12.263Z,28.05
2023-04-06T01:41:39.080Z,33.38
2023-04-06T01:44:06.640Z,33.65
2023-04-06T01:46:33.582Z,34.80
2023-04-06T01:49:00.576Z,30.63
2023-04-06T01:51:27.761Z,29.23
2023-04-06T01:53:54.565Z,33.65
2023-04-06T01:56:22.165Z,38.50
2023-04-06T01:58:49.028Z,34.47
2023-04-06T02:01:15.972Z,36.08
2023-04-06T02:03:42.859Z,32.97
2023-04-06T02:06:09.852Z,31.13
2023-04-06T02:08:38.235Z,35.63
2023-04-06T02:11:05.082Z,32.15
2023-04-06T02:13:32.189Z,29.88
2023-04-06T02:15:59.198Z,31.70
2023-04-06T02:18:26.279Z,33.25
2023-04-06T02:20:53.127Z,31.45
2023-04-06T02:23:20.003Z,31.17
2023-04-06T02:25:47.106Z,30.70
2023-04-06T02:28:14.080Z,30.65
2023-04-06T02:30:40.990Z,30.20
2023-04-06T02:33:07.900Z,31.23
2023-04-06T02:35:34.768Z,36.67
2023-04-06T02:38:01.671Z,31.67
2023-04-06T02:40:28.535Z,31.55
2023-04-06T02:42:55.398Z,30.88
2023-04-06T02:45:22.380Z,30.92
2023-04-06T02:47:49.359Z,32.47
2023-04-06T02:50:16.591Z,30.55
2023-04-06T02:52:47.740Z,27.52
2023-04-06T02:55:14.747Z,32.43
2023-04-06T02:57:41.719Z,34.30
2023-04-06T03:00:09.245Z,33.90
2023-04-06T03:02:36.331Z,32.28
2023-04-06T03:05:04.461Z,28.52
2023-04-06T03:07:31.427Z,31.00
2023-04-06T03:09:58.400Z,29.83
2023-04-06T03:12:25.473Z,31.58
2023-04-06T03:14:52.561Z,29.98
2023-04-06T03:17:19.629Z,32.53
2023-04-06T03:19:46.494Z,28.08
2023-04-06T03:22:13.300Z,33.15
2023-04-06T03:24:40.135Z,35.17
2023-04-06T03:27:07.376Z,36.70
2023-04-06T03:29:34.396Z,28.42
2023-04-06T03:32:01.366Z,32.45
2023-04-06T03:34:28.403Z,32.10
2023-04-06T03:37:08.882Z,33.40
2023-04-06T03:39:37.405Z,30.00
2023-04-06T03:42:04.595Z,34.28
2023-04-06T03:44:31.444Z,30.50
2023-04-06T03:46:58.321Z,31.02
2023-04-06T03:49:25.263Z,28.50
2023-04-06T03:51:52.117Z,32.08
2023-04-06T03:54:18.964Z,33.45
2023-04-06T03:56:45.955Z,36.70
2023-04-06T03:59:12.849Z,36.60
2023-04-06T04:01:40.488Z,36.50
2023-04-06T04:04:07.446Z,29.25
2023-04-06T04:06:34.289Z,34.63
2023-04-06T04:09:01.156Z,31.45
2023-04-06T04:11:28.048Z,35.13
2023-04-06T04:13:54.847Z,34.10
2023-04-06T04:16:21.763Z,30.88
2023-04-06T04:18:49.726Z,30.67
2023-04-06T04:21:16.688Z,27.10
2023-04-06T04:23:43.581Z,29.95
2023-04-06T04:26:10.436Z,32.75
2023-04-06T04:28:37.293Z,30.55
2023-04-06T04:31:04.206Z,28.65
2023-04-06T04:33:32.680Z,32.33
2023-04-06T04:36:01.337Z,35.53
2023-04-06T04:38:28.317Z,29.20
2023-04-06T04:40:55.207Z,32.53
2023-04-06T04:43:22.020Z,32.63
2023-04-06T04:45:48.907Z,36.70
2023-04-06T04:48:15.890Z,29.20
2023-04-06T04:50:42.759Z,34.08
2023-04-06T04:53:09.652Z,32.65
2023-04-06T04:55:36.524Z,39.97
2023-04-06T04:58:03.654Z,34.28
2023-04-06T05:00:33.030Z,35.25
2023-04-06T05:02:59.998Z,38.38
2023-04-06T05:05:26.872Z,34.88
2023-04-06T05:07:53.619Z,34.38
2023-04-06T05:10:20.526Z,31.35
2023-04-06T05:12:47.346Z,31.23
2023-04-06T05:15:14.370Z,36.33
2023-04-06T05:17:41.475Z,33.75
2023-04-06T05:20:08.876Z,40.55
2023-04-06T05:22:36.127Z,32.58
2023-04-06T05:25:03.770Z,33.97
2023-04-06T05:27:30.682Z,53.38
2023-04-06T05:29:57.985Z,80.50
2023-04-06T05:32:25.911Z,108.32
2023-04-06T05:34:52.825Z,125.00
2023-04-06T05:37:19.693Z,71.90
2023-04-06T05:39:46.817Z,74.10
2023-04-06T05:42:13.668Z,84.25
2023-04-06T05:44:40.460Z,87.60
2023-04-06T05:47:07.273Z,84.10
2023-04-06T05:49:34.257Z,63.78
2023-04-06T05:52:01.164Z,58.30
2023-04-06T05:54:30.786Z,53.38
2023-04-06T05:56:57.630Z,60.95
2023-04-06T05:59:24.987Z,63.25
2023-04-06T06:01:51.970Z,81.43
2023-04-06T06:04:18.838Z,61.85
2023-04-06T06:06:45.807Z,68.50
2023-04-06T06:09:12.596Z,46.28
2023-04-06T06:11:39.743Z,53.17
2023-04-06T06:14:06.655Z,40.47
2023-04-06T06:16:34.037Z,39.00
2023-04-06T06:19:00.957Z,48.22
2023-04-06T06:21:27.812Z,51.17
2023-04-06T06:23:55.643Z,61.60
2023-04-06T06:26:22.888Z,46.47
2023-04-06T06:28:49.795Z,36.28
2023-04-06T06:31:17.391Z,39.22
2023-04-06T06:33:44.275Z,49.42
2023-04-06T06:36:11.344Z,73.45
2023-04-06T06:38:39.236Z,56.90
2023-04-06T06:41:06.126Z,59.10
2023-04-06T06:43:33.014Z,42.50
2023-04-06T06:45:59.961Z,50.58
2023-04-06T06:48:26.862Z,50.95
2023-04-06T06:50:53.775Z,51.97
2023-04-06T06:53:21.365Z,50.38
2023-04-06T06:55:49.965Z,56.00
2023-04-06T06:58:19.168Z,63.15
2023-04-06T07:00:46.068Z,40.13
2023-04-06T07:03:13.325Z,39.10
2023-04-06T07:05:41.602Z,47.38
2023-04-06T07:08:08.454Z,46.42
2023-04-06T07:10:36.236Z,41.20
2023-04-06T07:13:03.248Z,56.97
2023-04-06T07:15:31.188Z,41.78
2023-04-06T07:17:58.228Z,45.85
2023-04-06T07:20:25.135Z,46.55
2023-04-06T07:22:52.085Z,44.60
2023-04-06T07:25:24.295Z,46.97
2023-04-06T07:27:52.511Z,41.53
2023-04-06T07:30:19.832Z,59.38
2023-04-06T07:32:47.028Z,39.33
2023-04-06T07:48:14.117Z,35.72
2023-04-06T07:50:41.341Z,26.48
2023-04-06T07:53:09.255Z,24.60
2023-04-06T07:55:36.147Z,25.77
2023-04-06T07:58:02.995Z,24.40
2023-04-06T08:00:31.011Z,21.52
2023-04-06T08:02:57.889Z,29.27
2023-04-06T08:05:24.787Z,18.70
2023-04-06T08:07:51.592Z,15.48
2023-04-06T08:10:18.388Z,25.70
2023-04-06T08:12:45.470Z,18.25
2023-04-06T08:15:12.362Z,16.25
2023-04-06T08:17:39.448Z,17.45
2023-04-06T08:20:06.804Z,12.85
2023-04-06T08:22:33.630Z,12.80
2023-04-06T08:25:00.438Z,15.40
2023-04-06T08:27:27.353Z,10.10
2023-04-06T08:29:54.154Z,5.60
2023-04-06T08:32:21.197Z,5.00
2023-04-06T08:34:48.535Z,6.72
2023-04-06T08:37:15.352Z,6.75
2023-04-06T08:39:42.193Z,10.52
2023-04-06T08:42:22.897Z,8.32
2023-04-06T08:44:52.309Z,7.75
2023-04-06T08:47:21.691Z,9.50
2023-04-06T08:49:52.261Z,9.57
2023-04-06T08:52:20.117Z,13.98
2023-04-06T08:54:47.335Z,7.72
2023-04-06T08:57:14.359Z,10.02
2023-04-06T08:59:41.722Z,8.18
2023-04-06T09:02:18.320Z,8.32
2023-04-06T09:04:47.770Z,9.85
2023-04-06T09:07:16.502Z,12.85
2023-04-06T09:09:48.806Z,8.23
2023-04-06T09:12:29.326Z,15.50
2023-04-06T09:14:57.693Z,7.57
2023-04-06T09:17:28.711Z,8.60
2023-04-06T09:19:56.133Z,7.53
2023-04-06T09:22:23.064Z,6.55
2023-04-06T09:24:52.435Z,5.95
2023-04-06T09:27:21.258Z,9.43
2023-04-06T09:29:48.150Z,9.45
2023-04-06T09:32:17.989Z,12.10
2023-04-06T09:34:50.966Z,8.48
2023-04-06T09:37:20.597Z,7.57
2023-04-06T09:39:47.981Z,10.13
2023-04-06T09:42:27.596Z,12.23
2023-04-06T09:44:54.482Z,5.53
2023-04-06T09:47:25.291Z,7.90
2023-04-06T09:49:59.268Z,6.38
2023-04-06T09:55:03.294Z,14.27
2023-04-06T09:57:47.099Z,9.25
2023-04-06T10:00:20.245Z,10.18
2023-04-06T10:02:47.786Z,6.95
2023-04-06T10:05:26.112Z,8.27
2023-04-06T10:08:00.455Z,11.20
2023-04-06T10:10:29.618Z,9.98
2023-04-06T10:12:57.333Z,11.43
2023-04-06T10:15:25.370Z,14.05
2023-04-06T10:17:52.884Z,6.97
2023-04-06T10:20:28.219Z,8.60
2023-04-06T10:23:26.721Z,5.47
2023-04-06T10:25:59.032Z,10.10
2023-04-06T10:28:26.824Z,7.38
2023-04-06T10:31:01.294Z,7.20
2023-04-06T10:33:28.597Z,7.78
2023-04-06T10:35:56.885Z,8.75
2023-04-06T10:38:41.400Z,8.77
2023-04-06T10:41:10.702Z,7.38
2023-04-06T10:43:39.226Z,14.20
2023-04-06T10:46:16.910Z,17.83
2023-04-06T10:48:46.561Z,8.23
2023-04-06T10:51:15.261Z,14.55
2023-04-06T10:53:47.799Z,28.70
2023-04-06T10:56:17.414Z,12.85
2023-04-06T10:58:53.390Z,10.40
2023-04-06T11:01:22.324Z,7.38
2023-04-06T11:03:54.461Z,6.35
2023-04-06T11:08:52.779Z,6.85
2023-04-06T11:11:21.772Z,9.18
2023-04-06T11:13:52.786Z,6.40
2023-04-06T11:16:33.202Z,7.22
2023-04-06T11:19:04.985Z,8.88
2023-04-06T11:21:36.730Z,17.90
2023-04-06T11:24:04.895Z,11.52
2023-04-06T11:26:31.701Z,15.93
2023-04-06T11:28:58.507Z,6.88
2023-04-06T11:31:28.582Z,7.57
2023-04-06T11:33:58.677Z,8.75
2023-04-06T11:36:28.879Z,10.55
2023-04-06T11:38:57.547Z,6.75
2023-04-06T11:41:27.128Z,11.35
2023-04-06T11:43:57.214Z,12.60
2023-04-06T11:46:24.143Z,9.43
2023-04-06T11:48:51.450Z,7.65
2023-04-06T11:51:30.700Z,6.80
2023-04-06T11:53:57.593Z,6.75
2023-04-06T11:56:31.408Z,8.35
2023-04-06T11:58:59.787Z,6.68
2023-04-06T12:01:27.238Z,9.30
2023-04-06T12:03:54.608Z,15.15
2023-04-06T12:06:21.596Z,15.90
2023-04-06T12:08:48.484Z,6.55
2023-04-06T12:11:15.373Z,7.95
2023-04-06T12:13:42.184Z,11.57
2023-04-06T12:16:09.093Z,8.63
2023-04-06T12:18:36.060Z,8.50
2023-04-06T12:21:03.036Z,9.38
2023-04-06T12:23:29.910Z,20.02
2023-04-06T12:25:56.876Z,13.55
2023-04-06T12:28:28.017Z,10.27
2023-04-06T12:30:55.898Z,6.00
2023-04-06T12:33:22.918Z,8.07
2023-04-06T12:35:49.891Z,6.80
2023-04-06T12:38:17.142Z,7.13
2023-04-06T12:40:44.285Z,6.45
2023-04-06T12:43:11.799Z,7.38
2023-04-06T12:45:38.758Z,6.00
2023-04-06T12:48:05.774Z,8.55
2023-04-06T12:50:32.617Z,7.82
2023-04-06T12:52:59.471Z,12.35
2023-04-06T12:55:26.390Z,6.72
2023-04-06T12:57:53.247Z,8.23
2023-04-06T13:00:20.868Z,9.40
2023-04-06T13:02:48.343Z,9.48
2023-04-06T13:05:20.128Z,12.68
2023-04-06T13:07:47.994Z,10.15
2023-04-06T13:10:14.996Z,6.65
2023-04-06T13:12:41.968Z,5.40
2023-04-06T13:15:09.306Z,6.65
2023-04-06T13:17:36.281Z,19.33
2023-04-06T13:20:04.597Z,10.50
2023-04-06T13:22:31.496Z,6.40
2023-04-06T13:24:58.379Z,7.45
2023-04-06T13:27:25.417Z,11.43
2023-04-06T13:29:52.352Z,7.70
2023-04-06T13:32:19.318Z,12.55
2023-04-06T13:34:46.272Z,11.85
2023-04-06T13:37:14.392Z,12.57
2023-04-06T13:39:41.505Z,19.33
2023-04-06T13:42:08.369Z,14.77
2023-04-06T13:44:37.693Z,10.50
2023-04-06T13:47:04.569Z,11.18
2023-04-06T13:49:31.426Z,9.90
2023-04-06T13:51:58.258Z,16.15
2023-04-06T13:54:25.418Z,12.18
2023-04-06T13:56:53.095Z,9.02
2023-04-06T13:59:19.986Z,12.80
2023-04-06T14:01:46.927Z,7.70
2023-04-06T14:04:13.935Z,8.98
2023-04-06T14:06:40.867Z,11.80
2023-04-06T14:09:07.706Z,16.08
2023-04-06T14:11:34.619Z,12.10
2023-04-06T14:14:02.029Z,17.52
2023-04-06T14:16:28.875Z,15.65
2023-04-06T14:18:56.191Z,17.30
2023-04-06T14:21:23.400Z,22.27
2023-04-06T14:23:50.560Z,16.40
2023-04-06T14:26:17.738Z,16.40
2023-04-06T14:28:47.474Z,22.77
2023-04-06T14:31:17.110Z,33.55
2023-04-06T14:33:44.480Z,17.58
2023-04-06T14:36:12.452Z,22.13
2023-04-06T14:38:40.501Z,16.10
2023-04-06T14:41:08.310Z,21.60
2023-04-06T14:43:35.267Z,15.48
2023-04-06T14:46:02.645Z,14.32
2023-04-06T14:48:29.718Z,14.05
2023-04-06T14:50:57.578Z,20.45
2023-04-06T14:58:40.734Z,13.80
2023-04-06T15:01:07.743Z,16.23
2023-04-06T15:03:34.953Z,12.65
2023-04-06T15:06:01.823Z,10.25
2023-04-06T15:08:28.710Z,19.80
2023-04-06T15:11:05.700Z,18.48
2023-04-06T15:13:34.784Z,11.45
2023-04-06T15:16:02.128Z,11.57
2023-04-06T15:18:29.652Z,17.98
2023-04-06T15:20:56.564Z,16.00
2023-04-06T15:23:26.211Z,12.48
2023-04-06T15:25:53.172Z,17.25
2023-04-06T15:28:20.051Z,20.33
2023-04-06T15:30:46.950Z,17.73
2023-04-06T15:33:13.849Z,19.27
2023-04-06T15:35:43.032Z,14.90
2023-04-06T15:38:13.139Z,28.75
2023-04-06T15:40:47.614Z,12.13
2023-04-06T15:43:14.974Z,21.42
2023-04-06T15:45:42.440Z,20.55
2023-04-06T15:48:09.628Z,23.58
2023-04-06T15:50:36.737Z,19.65
2023-04-06T15:53:06.238Z,21.27
2023-04-06T15:55:33.042Z,17.08
2023-04-06T15:57:59.883Z,36.15
2023-04-06T16:00:28.665Z,22.30
2023-04-06T16:02:57.212Z,17.85
2023-04-06T16:05:24.228Z,16.50
2023-04-06T16:07:51.252Z,14.25
2023-04-06T16:10:18.194Z,18.48
2023-04-06T16:12:45.171Z,17.38
2023-04-06T16:15:12.369Z,19.38
2023-04-06T16:17:39.185Z,17.98
2023-04-06T16:20:06.766Z,21.23
2023-04-06T16:22:33.679Z,11.63
2023-04-06T16:25:00.502Z,22.25
2023-04-06T16:27:27.924Z,18.40
2023-04-06T16:29:54.815Z,17.20
2023-04-06T16:32:21.705Z,16.10
2023-04-06T16:34:48.667Z,14.82
2023-04-06T16:37:16.367Z,8.82
2023-04-06T16:39:43.337Z,14.05
2023-04-06T16:42:10.370Z,12.40
2023-04-06T16:44:37.256Z,16.98
2023-04-06T16:47:04.688Z,15.65
2023-04-06T16:49:31.561Z,20.33
2023-04-06T16:52:02.041Z,16.05
2023-04-06T16:54:28.992Z,22.40
2023-04-06T16:56:56.669Z,15.45
2023-04-06T16:59:23.479Z,15.98
2023-04-06T17:01:50.600Z,17.27
2023-04-06T17:04:17.717Z,14.13
2023-04-06T17:06:45.097Z,16.27
2023-04-06T17:09:12.376Z,18.88
2023-04-06T17:11:46.644Z,10.20
2023-04-06T17:14:16.765Z,10.23
2023-04-06T17:16:43.579Z,13.30
2023-04-06T17:19:10.560Z,15.43
2023-04-06T17:21:38.821Z,14.40
2023-04-06T17:24:06.249Z,20.42
2023-04-06T17:26:33.091Z,18.98
2023-04-06T17:29:00.188Z,18.70
2023-04-06T17:31:27.276Z,13.77
2023-04-06T17:33:56.613Z,12.85
2023-04-06T17:36:24.379Z,13.18
2023-04-06T17:38:51.371Z,14.20
2023-04-06T17:41:18.293Z,14.38
2023-04-06T17:43:45.549Z,15.85
2023-04-06T17:46:12.868Z,15.45
2023-04-06T17:48:39.684Z,16.38
2023-04-06T17:51:06.900Z,11.40
2023-04-06T17:53:34.639Z,13.32
2023-04-06T17:56:05.204Z,10.48
2023-04-06T17:58:32.669Z,9.57
2023-04-06T18:01:00.709Z,9.88
2023-04-06T18:03:27.576Z,12.43
2023-04-06T18:05:54.963Z,16.35
2023-04-06T18:08:22.534Z,17.40
2023-04-06T18:10:49.542Z,11.50
2023-04-06T18:13:16.389Z,18.83
2023-04-06T18:15:43.256Z,11.60
2023-04-06T18:18:10.040Z,8.20
2023-04-06T18:20:41.256Z,12.55
2023-04-06T18:23:08.143Z,8.02
2023-04-06T18:25:41.476Z,11.52
2023-04-06T18:28:09.829Z,18.63
2023-04-06T18:30:36.858Z,18.63
2023-04-06T18:33:04.373Z,21.10
2023-04-06T18:35:31.241Z,9.65
2023-04-06T18:37:58.138Z,10.35
2023-04-06T18:40:34.592Z,12.32
2023-04-06T18:43:02.856Z,13.95
2023-04-06T18:45:31.672Z,10.60
2023-04-06T18:47:58.599Z,13.38
2023-04-06T18:50:27.784Z,12.50
2023-04-06T18:52:54.824Z,11.98
2023-04-06T18:55:21.755Z,8.48
2023-04-06T18:57:48.599Z,5.38
2023-04-06T19:00:19.036Z,7.40
2023-04-06T19:02:46.329Z,11.90
2023-04-06T19:05:14.004Z,9.32
2023-04-06T19:07:42.427Z,8.30
2023-04-06T19:10:10.465Z,10.20
2023-04-06T19:12:38.954Z,15.00
2023-04-06T19:15:08.175Z,12.18
2023-04-06T19:17:35.444Z,11.63
2023-04-06T19:20:02.768Z,16.77
2023-04-06T19:22:34.103Z,14.23
2023-04-06T19:25:00.961Z,6.53
2023-04-06T19:27:27.807Z,10.90
2023-04-06T19:29:54.921Z,9.57
2023-04-06T19:32:21.842Z,7.15
2023-04-06T19:34:49.576Z,12.52
2023-04-06T19:37:16.394Z,6.22
2023-04-06T19:39:45.906Z,7.55
2023-04-06T19:42:14.281Z,7.35
2023-04-06T19:44:41.658Z,10.73
2023-04-06T19:47:08.512Z,6.65
2023-04-06T19:49:35.374Z,10.80
2023-04-06T19:52:02.279Z,12.25
2023-04-06T19:54:29.135Z,9.15
2023-04-06T19:56:56.043Z,5.30
2023-04-06T19:59:23.003Z,6.50
2023-04-06T20:01:49.952Z,7.97
2023-04-06T20:04:17.033Z,6.22
2023-04-06T20:06:43.999Z,10.57
2023-04-06T20:09:12.120Z,12.52
2023-04-06T20:11:39.143Z,13.35
2023-04-06T20:14:06.067Z,13.55
2023-04-06T20:16:33.007Z,11.43
2023-04-06T20:18:59.927Z,10.65
2023-04-06T20:21:27.392Z,7.22
2023-04-06T20:23:54.299Z,7.40
2023-04-06T20:26:21.582Z,8.32
2023-04-06T20:28:48.774Z,11.75
2023-04-06T20:31:15.754Z,9.25
2023-04-06T20:33:42.589Z,11.05
2023-04-06T20:36:09.671Z,13.32
2023-04-06T20:38:36.605Z,11.98
2023-04-06T20:41:03.469Z,8.90
2023-04-06T20:43:31.828Z,8.88
2023-04-06T20:45:59.494Z,19.38
2023-04-06T20:48:26.760Z,11.85
2023-04-06T20:50:53.701Z,10.48
2023-04-06T20:53:20.995Z,10.88
2023-04-06T20:55:47.974Z,11.05
2023-04-06T20:58:21.041Z,18.55
2023-04-06T21:00:49.778Z,13.18
2023-04-06T21:03:17.617Z,9.45
2023-04-06T21:05:57.550Z,10.98
2023-04-06T21:08:24.458Z,12.15
2023-04-06T21:10:51.316Z,20.52
2023-04-06T21:13:18.854Z,11.85
2023-04-06T21:15:45.725Z,13.15
2023-04-06T21:18:14.893Z,14.10
2023-04-06T21:20:41.830Z,12.63
2023-04-06T21:23:08.667Z,11.75
2023-04-06T21:25:38.746Z,12.15
2023-04-06T21:28:05.772Z,11.15
2023-04-06T21:30:37.249Z,15.57
2023-04-06T21:33:07.611Z,15.25
2023-04-06T21:35:38.978Z,16.17
2023-04-06T21:38:06.082Z,11.90
2023-04-06T21:40:33.427Z,13.80
2023-04-06T21:43:00.310Z,18.48
2023-04-06T21:45:27.176Z,18.83
2023-04-06T21:47:54.197Z,14.60
2023-04-06T21:50:21.243Z,10.80
2023-04-06T21:52:48.131Z,9.85
2023-04-06T21:55:15.240Z,11.07
2023-04-06T21:57:42.885Z,13.07
2023-04-06T22:00:12.645Z,12.10
2023-04-06T22:02:41.174Z,12.70
2023-04-06T22:05:08.758Z,12.82
2023-04-06T22:07:36.114Z,19.75
2023-04-06T22:10:03.193Z,19.15
2023-04-06T22:12:30.273Z,12.68
2023-04-06T22:14:57.680Z,16.17
2023-04-06T22:17:24.667Z,10.68
2023-04-06T22:19:52.718Z,9.13
2023-04-06T22:22:19.687Z,10.73
2023-04-06T22:24:46.777Z,10.38
2023-04-06T22:27:13.714Z,9.88
2023-04-06T22:29:40.531Z,17.60
2023-04-06T22:32:07.426Z,12.35
2023-04-06T22:34:34.282Z,8.88
2023-04-06T22:37:01.389Z,10.55
2023-04-06T22:39:28.201Z,9.48
2023-04-06T22:41:55.034Z,10.60
2023-04-06T22:44:21.982Z,9.38
2023-04-06T22:46:48.997Z,9.52
2023-04-06T22:49:15.935Z,9.38
2023-04-06T22:51:42.839Z,9.80
2023-04-06T22:54:10.645Z,11.07
2023-04-06T22:56:37.715Z,11.38
2023-04-06T22:59:04.716Z,9.40
2023-04-06T23:01:31.778Z,12.05
2023-04-06T23:03:58.877Z,15.32
2023-04-06T23:06:27.420Z,9.93
2023-04-06T23:08:54.359Z,16.33
2023-04-06T23:11:22.318Z,15.07
2023-04-06T23:13:49.210Z,19.05
2023-04-06T23:16:16.202Z,19.40
2023-04-06T23:18:43.398Z,13.40
2023-04-06T23:21:10.458Z,11.70
2023-04-06T23:23:37.280Z,9.30
2023-04-06T23:26:04.346Z,11.13
2023-04-06T23:28:31.177Z,10.50
2023-04-06T23:30:58.030Z,12.60
2023-04-06T23:33:24.852Z,10.85
2023-04-06T23:35:52.210Z,8.63
2023-04-06T23:38:19.171Z,11.10
2023-04-06T23:40:46.353Z,12.13
2023-04-06T23:43:13.207Z,13.70
2023-04-06T23:45:41.998Z,9.35
2023-04-06T23:48:09.639Z,9.57
2023-04-06T23:50:36.891Z,12.90
2023-04-06T23:53:04.657Z,14.00
2023-04-06T23:55:31.743Z,13.82
2023-04-06T23:57:58.887Z,10.63
